createdAt,value
2023-01-06T00:01:32.151Z,98641.03
2023-01-06T00:06:35.571Z,98653.16
2023-01-06T00:11:40.418Z,98646.25
2023-01-06T00:16:43.866Z,98659.22
2023-01-06T00:21:47.561Z,98654.88
2023-01-06T00:26:52.337Z,98666.09
2023-01-06T00:31:56.945Z,98671.28
2023-01-06T00:37:00.596Z,98679.06
2023-01-06T00:42:06.974Z,98661.78
2023-01-06T00:47:12.764Z,98670.44
2023-01-06T00:52:16.682Z,98673.88
2023-01-06T00:57:21.473Z,98668.69
2023-01-06T01:02:24.976Z,98675.59
2023-01-06T01:07:28.472Z,98675.59
2023-01-06T01:12:33.358Z,98665.22
2023-01-06T01:17:37.062Z,98668.69
2023-01-06T01:22:40.463Z,98671.28
2023-01-06T01:27:45.276Z,98669.53
2023-01-06T01:32:48.850Z,98685.13
2023-01-06T01:37:52.604Z,98691.16
2023-01-06T01:42:57.445Z,98679.94
2023-01-06T01:48:04.697Z,98684.25
2023-01-06T01:53:14.056Z,98679.03
2023-01-06T01:58:23.265Z,98700.66
2023-01-06T02:03:28.870Z,98701.47
2023-01-06T02:08:38.628Z,98699.75
2023-01-06T02:13:47.606Z,98697.13
2023-01-06T02:18:59.344Z,98701.44
2023-01-06T02:24:50.653Z,98711.81
2023-01-06T02:30:29.890Z,98717.81
2023-01-06T02:35:47.637Z,98708.31
2023-01-06T02:41:05.364Z,98710.91
2023-01-06T02:46:16.436Z,98699.66
2023-01-06T02:51:27.768Z,98703.13
2023-01-06T02:56:36.152Z,98698.81
2023-01-06T03:01:43.996Z,98707.44
2023-01-06T03:06:53.190Z,98732.41
2023-01-06T03:11:56.747Z,98741.00
2023-01-06T03:17:00.860Z,98737.53
2023-01-06T03:22:10.569Z,98741.00
2023-01-06T03:27:14.230Z,98745.34
2023-01-06T03:32:25.844Z,98745.28
2023-01-06T03:37:37.733Z,98746.06
2023-01-06T03:43:03.528Z,98752.97
2023-01-06T03:48:14.563Z,98752.94
2023-01-06T03:53:29.070Z,98763.25
2023-01-06T03:58:34.420Z,98778.78
2023-01-06T04:03:39.145Z,98783.94
2023-01-06T04:08:44.415Z,98790.78
2023-01-06T04:13:49.301Z,98789.91
2023-01-06T04:18:53.059Z,98789.00
2023-01-06T04:23:58.032Z,98795.00
2023-01-06T04:29:02.061Z,98821.66
2023-01-06T04:34:06.157Z,98824.28
2023-01-06T04:39:11.292Z,98829.38
2023-01-06T04:44:14.731Z,98838.91
2023-01-06T04:49:18.132Z,98845.78
2023-01-06T04:54:23.181Z,98843.16
2023-01-06T04:59:26.655Z,98835.25
2023-01-06T05:04:34.175Z,98833.53
2023-01-06T05:09:41.970Z,98842.19
2023-01-06T05:14:45.380Z,98847.31
2023-01-06T05:19:48.844Z,98859.28
2023-01-06T05:24:53.634Z,98868.81
2023-01-06T05:29:57.005Z,98876.63
2023-01-06T05:35:00.726Z,98883.47
2023-01-06T05:40:06.084Z,98884.34
2023-01-06T05:45:11.289Z,98890.25
2023-01-06T05:50:14.689Z,98894.72
2023-01-06T05:55:19.934Z,98900.78
2023-01-06T06:00:23.664Z,98902.47
2023-01-06T06:05:28.268Z,98912.03
2023-01-06T06:10:33.053Z,98912.25
2023-01-06T06:15:36.515Z,98911.59
2023-01-06T06:20:40.242Z,98913.59
2023-01-06T06:25:45.069Z,98921.53
2023-01-06T06:30:48.521Z,98933.88
2023-01-06T06:35:58.441Z,98929.56
2023-01-06T06:41:03.287Z,98945.09
2023-01-06T06:46:07.262Z,98955.50
2023-01-06T06:51:13.188Z,98953.81
2023-01-06T06:56:21.834Z,98965.91
2023-01-06T07:01:25.379Z,98978.88
2023-01-06T07:06:29.089Z,98990.16
2023-01-06T07:11:33.902Z,98989.28
2023-01-06T07:16:37.309Z,98999.66
2023-01-06T07:21:40.805Z,99013.44
2023-01-06T07:26:45.609Z,99021.44
2023-01-06T07:31:48.975Z,99020.75
2023-01-06T07:36:52.362Z,99030.34
2023-01-06T07:41:57.205Z,99033.84
2023-01-06T07:47:00.584Z,99043.47
2023-01-06T07:52:03.986Z,99054.81
2023-01-06T07:57:09.271Z,99060.97
2023-01-06T08:02:12.933Z,99071.44
2023-01-06T08:07:16.903Z,99068.94
2023-01-06T08:12:21.701Z,99080.28
2023-01-06T08:17:25.394Z,99077.72
2023-01-06T08:22:28.875Z,99089.88
2023-01-06T08:27:33.674Z,99095.09
2023-01-06T08:32:37.098Z,99091.59
2023-01-06T08:37:40.545Z,99108.06
2023-01-06T08:42:45.685Z,99115.88
2023-01-06T08:47:49.173Z,99117.56
2023-01-06T08:52:52.562Z,99114.09
2023-01-06T08:57:57.404Z,99127.09
2023-01-06T09:03:00.832Z,99118.50
2023-01-06T09:08:04.937Z,99119.31
2023-01-06T09:13:09.766Z,99103.38
2023-01-06T09:18:13.669Z,99094.47
2023-01-06T09:23:17.506Z,99096.97
2023-01-06T09:28:22.511Z,99098.97
2023-01-06T09:33:27.017Z,99094.56
2023-01-06T09:38:32.163Z,99094.50
2023-01-06T09:43:47.420Z,99095.69
2023-01-06T09:49:00.639Z,99085.94
2023-01-06T09:54:14.973Z,99083.09
2023-01-06T09:59:25.517Z,99084.78
2023-01-06T10:04:31.218Z,99092.50
2023-01-06T10:09:49.021Z,99090.28
2023-01-06T10:15:01.511Z,99089.03
2023-01-06T10:20:26.440Z,99100.72
2023-01-06T10:25:35.011Z,99109.53
2023-01-06T10:30:46.112Z,99113.91
2023-01-06T10:35:49.613Z,99109.69
2023-01-06T10:40:54.108Z,99115.28
2023-01-06T10:45:58.923Z,99106.06
2023-01-06T10:51:22.087Z,99105.25
2023-01-06T10:56:27.657Z,99110.72
2023-01-06T11:01:34.824Z,99118.09
2023-01-06T11:06:41.049Z,99118.50
2023-01-06T11:11:50.144Z,99123.06
2023-01-06T11:17:01.088Z,99104.41
2023-01-06T11:22:05.870Z,99120.09
2023-01-06T11:27:17.625Z,99121.09
2023-01-06T11:32:26.798Z,99118.31
2023-01-06T11:37:35.851Z,99123.94
2023-01-06T11:47:51.362Z,99122.63
2023-01-06T11:53:00.130Z,99132.91
2023-01-06T11:58:12.093Z,99138.16
2023-01-06T12:03:22.792Z,99153.75
2023-01-06T12:08:33.039Z,99150.75
2023-01-06T12:13:44.208Z,99150.44
2023-01-06T12:18:50.301Z,99139.25
2023-01-06T12:23:54.870Z,99160.59
2023-01-06T12:29:00.743Z,99171.16
2023-01-06T12:34:12.040Z,99175.88
2023-01-06T12:39:22.179Z,99188.72
2023-01-06T12:44:37.335Z,99189.47
2023-01-06T12:49:47.281Z,99201.84
2023-01-06T12:54:54.397Z,99202.94
2023-01-06T13:00:14.796Z,99214.84
2023-01-06T13:05:40.445Z,99214.03
2023-01-06T13:10:48.572Z,99217.75
2023-01-06T13:15:55.069Z,99231.97
2023-01-06T13:21:05.044Z,99238.03
2023-01-06T13:26:32.527Z,99249.31
2023-01-06T13:32:04.277Z,99258.06
2023-01-06T13:37:21.528Z,99265.09
2023-01-06T13:42:35.826Z,99267.72
2023-01-06T13:47:40.360Z,99257.28
2023-01-06T13:52:45.991Z,99265.13
2023-01-06T13:57:49.640Z,99278.16
2023-01-06T14:03:16.449Z,99276.47
2023-01-06T14:08:23.655Z,99281.72
2023-01-06T14:13:32.231Z,99290.47
2023-01-06T14:18:40.014Z,99293.13
2023-01-06T14:23:54.834Z,99290.53
2023-01-06T14:29:39.243Z,99297.47
2023-01-06T14:34:45.403Z,99312.22
2023-01-06T14:39:54.680Z,99319.16
2023-01-06T14:45:01.458Z,99332.09
2023-01-06T14:50:08.378Z,99338.91
2023-01-06T14:55:19.341Z,99343.16
2023-01-06T15:00:25.287Z,99357.81
2023-01-06T15:05:31.777Z,99367.34
2023-01-06T15:10:39.173Z,99376.00
2023-01-06T15:15:43.929Z,99387.19
2023-01-06T15:20:47.778Z,99399.16
2023-01-06T15:25:54.726Z,99416.38
2023-01-06T15:30:59.096Z,99422.53
2023-01-06T15:36:13.338Z,99435.44
2023-01-06T15:41:36.898Z,99443.94
2023-01-06T15:46:42.798Z,99445.66
2023-01-06T15:51:56.087Z,99445.47
2023-01-06T15:57:15.677Z,99444.44
2023-01-06T16:02:24.390Z,99467.50
2023-01-06T16:07:40.755Z,99473.59
2023-01-06T16:12:45.966Z,99485.78
2023-01-06T16:17:49.521Z,99494.50
2023-01-06T16:22:55.281Z,99509.91
2023-01-06T16:28:02.323Z,99513.56
2023-01-06T16:33:06.333Z,99524.88
2023-01-06T16:38:09.783Z,99526.63
2023-01-06T16:43:14.617Z,99519.69
2023-01-06T16:48:19.014Z,99523.91
2023-01-06T16:53:23.427Z,99529.91
2023-01-06T16:58:30.375Z,99548.06
2023-01-06T17:03:38.755Z,99565.16
2023-01-06T17:08:42.212Z,99560.88
2023-01-06T17:13:53.655Z,99567.06
2023-01-06T17:18:59.550Z,99568.75
2023-01-06T17:24:11.484Z,99574.75
2023-01-06T17:29:21.312Z,99572.25
2023-01-06T17:34:31.895Z,99570.50
2023-01-06T17:39:40.558Z,99563.59
2023-01-06T17:44:48.658Z,99580.84
2023-01-06T17:49:55.509Z,99593.94
2023-01-06T17:55:20.274Z,99591.50
2023-01-06T18:00:26.680Z,99597.56
2023-01-06T18:06:09.543Z,99608.56
2023-01-06T18:11:35.720Z,99613.78
2023-01-06T18:16:42.646Z,99610.34
2023-01-06T18:21:46.612Z,99616.19
2023-01-06T18:26:52.103Z,99611.88
2023-01-06T18:31:57.647Z,99612.63
2023-01-06T18:37:02.783Z,99619.78
2023-01-06T18:42:26.925Z,99629.88
2023-01-06T18:47:32.572Z,99648.97
2023-01-06T18:52:41.220Z,99659.47
2023-01-06T18:57:46.773Z,99659.13
2023-01-06T19:02:53.187Z,99670.19
2023-01-06T19:07:58.314Z,99662.63
2023-01-06T19:13:09.046Z,99666.78
2023-01-06T19:18:17.005Z,99668.47
2023-01-06T19:23:23.360Z,99678.63
2023-01-06T19:28:31.083Z,99668.03
2023-01-06T19:33:38.879Z,99674.09
2023-01-06T19:38:43.404Z,99678.34
2023-01-06T19:43:48.726Z,99693.13
2023-01-06T19:48:55.693Z,99706.09
2023-01-06T19:54:01.589Z,99694.84
2023-01-06T19:59:11.439Z,99698.22
2023-01-06T20:04:21.310Z,99693.94
2023-01-06T20:09:25.133Z,99701.41
2023-01-06T20:14:28.595Z,99714.38
2023-01-06T20:19:33.903Z,99698.97
2023-01-06T20:24:37.337Z,99698.75
2023-01-06T20:29:40.720Z,99698.81
2023-01-06T20:34:47.737Z,99701.50
2023-01-06T20:39:52.597Z,99715.34
2023-01-06T20:44:56.009Z,99710.22
2023-01-06T20:50:00.810Z,99706.59
2023-01-06T20:55:04.718Z,99700.00
2023-01-06T21:00:11.061Z,99696.63
2023-01-06T21:05:16.003Z,99708.69
2023-01-06T21:10:19.479Z,99717.19
2023-01-06T21:15:22.879Z,99728.38
2023-01-06T21:20:27.657Z,99729.94
2023-01-06T21:25:31.202Z,99718.91
2023-01-06T21:30:34.896Z,99722.91
2023-01-06T21:35:40.076Z,99729.66
2023-01-06T21:40:43.527Z,99734.00
2023-01-06T21:45:47.520Z,99719.38
2023-01-06T21:50:52.606Z,99723.69
2023-01-06T21:55:56.024Z,99726.28
2023-01-06T22:00:59.765Z,99722.72
2023-01-06T22:06:05.348Z,99721.53
2023-01-06T22:11:09.004Z,99719.69
2023-01-06T22:16:13.775Z,99702.78
2023-01-06T22:21:18.666Z,99707.25
2023-01-06T22:26:22.421Z,99694.88
2023-01-06T22:31:25.903Z,99683.25
2023-01-06T22:36:31.031Z,99688.25
2023-01-06T22:41:34.521Z,99688.47
2023-01-06T22:46:37.987Z,99693.59
2023-01-06T22:51:43.940Z,99702.59
2023-01-06T22:56:47.864Z,99706.00
2023-01-06T23:01:51.698Z,99707.25
2023-01-06T23:06:56.613Z,99715.69
2023-01-06T23:12:00.016Z,99717.47
2023-01-06T23:17:03.458Z,99713.81
2023-01-06T23:22:08.585Z,99709.50
2023-01-06T23:27:13.371Z,99709.06
2023-01-06T23:32:16.758Z,99698.16
2023-01-06T23:37:21.590Z,99706.59
2023-01-06T23:42:25.007Z,99711.75
2023-01-06T23:47:28.667Z,99714.34
2023-01-06T23:52:33.733Z,99704.88
2023-01-06T23:57:37.399Z,99719.81
